createdAt,value
2022-08-01T00:02:39.509Z,60.9
2022-08-01T00:05:27.556Z,60.6
2022-08-01T00:08:16.659Z,60.5
2022-08-01T00:11:04.201Z,60.8
2022-08-01T00:13:51.805Z,61.7
2022-08-01T00:16:39.746Z,61.2
2022-08-01T00:19:27.853Z,62.1
2022-08-01T00:22:16.373Z,60.5
2022-08-01T00:25:03.809Z,56.2
2022-08-01T00:27:52.929Z,56
2022-08-01T00:30:40.949Z,56.1
2022-08-01T00:33:28.994Z,58
2022-08-01T00:36:17.221Z,58.7
2022-08-01T00:39:04.750Z,59.6
2022-08-01T00:41:59.653Z,59.4
2022-08-01T00:44:52.976Z,59.8
2022-08-01T00:47:40.356Z,60.4
2022-08-01T00:50:28.388Z,61.3
2022-08-01T00:53:18.666Z,61.4
2022-08-01T00:56:06.801Z,61.1
2022-08-01T00:58:55.143Z,56.1
2022-08-01T01:01:46.523Z,56.2
2022-08-01T01:04:34.444Z,56.1
2022-08-01T01:07:21.936Z,57.1
2022-08-01T01:10:15.938Z,58.3
2022-08-01T01:13:11.490Z,58.7
2022-08-01T01:16:04.433Z,59.7
2022-08-01T01:18:59.002Z,60
2022-08-01T01:21:54.654Z,60.5
2022-08-01T01:25:10.296Z,61.4
2022-08-01T01:28:32.144Z,61.8
2022-08-01T01:31:31.471Z,61.9
2022-08-01T01:34:26.392Z,62.2
2022-08-01T01:37:21.918Z,55.6
2022-08-01T01:40:12.422Z,54.8
2022-08-01T01:43:01.943Z,56.1
2022-08-01T01:45:50.723Z,57
2022-08-01T01:48:41.231Z,57.9
2022-08-01T01:51:30.983Z,59.2
2022-08-01T01:54:19.546Z,59.8
2022-08-01T01:57:10.180Z,60.6
2022-08-01T02:00:00.586Z,60.7
2022-08-01T02:02:49.699Z,62.2
2022-08-01T02:05:40.108Z,58.3
2022-08-01T02:08:29.141Z,56.8
2022-08-01T02:11:20.978Z,57
2022-08-01T02:14:09.223Z,57.7
2022-08-01T02:16:58.865Z,59.2
2022-08-01T02:19:49.369Z,59.3
2022-08-01T02:22:38.697Z,60
2022-08-01T02:25:30.668Z,60.6
2022-08-01T02:28:24.499Z,61.8
2022-08-01T02:31:18.793Z,61.6
2022-08-01T02:34:08.338Z,61.8
2022-08-01T02:36:59.483Z,56.2
2022-08-01T02:39:49.533Z,55.3
2022-08-01T02:42:39.466Z,55.9
2022-08-01T02:45:33.322Z,57.2
2022-08-01T02:48:26.165Z,58.5
2022-08-01T02:51:16.977Z,59.6
2022-08-01T02:54:08.101Z,60.1
2022-08-01T02:56:57.456Z,60.7
2022-08-01T02:59:48.593Z,61.9
2022-08-01T03:02:37.758Z,62.1
2022-08-01T03:05:27.506Z,60.3
2022-08-01T03:08:17.749Z,55.8
2022-08-01T03:11:07.291Z,56.1
2022-08-01T03:13:55.027Z,57
2022-08-01T03:16:45.015Z,57.9
2022-08-01T03:19:34.399Z,59.1
2022-08-01T03:22:23.507Z,59.5
2022-08-01T03:25:14.024Z,60
2022-08-01T03:28:02.861Z,61.2
2022-08-01T03:30:53.459Z,61.7
2022-08-01T03:33:42.457Z,62.1
2022-08-01T03:36:30.356Z,61.1
2022-08-01T03:39:23.069Z,55.1
2022-08-01T03:42:16.734Z,54.5
2022-08-01T03:45:06.828Z,56.1
2022-08-01T03:48:01.970Z,57.4
2022-08-01T03:50:55.013Z,58.3
2022-08-01T03:53:45.407Z,59.7
2022-08-01T03:56:34.698Z,60.1
2022-08-01T03:59:23.747Z,60.5
2022-08-01T04:02:12.739Z,61.3
2022-08-01T04:05:02.784Z,61.7
2022-08-01T04:07:51.618Z,61.6
2022-08-01T04:10:41.393Z,62
2022-08-01T04:13:29.339Z,61.3
2022-08-01T04:16:24.906Z,55.8
2022-08-01T04:19:12.610Z,55.2
2022-08-01T04:22:00.038Z,56.4
2022-08-01T04:24:50.419Z,58.1
2022-08-01T04:27:48.532Z,59.1
2022-08-01T04:30:40.621Z,59.5
2022-08-01T04:33:32.110Z,60.1
2022-08-01T04:36:22.089Z,60.8
2022-08-01T04:39:11.631Z,61.6
2022-08-01T04:42:01.822Z,62.2
2022-08-01T04:44:51.184Z,62.1
2022-08-01T04:47:38.833Z,63
2022-08-01T04:50:28.853Z,58.1
2022-08-01T04:53:17.457Z,55.6
2022-08-01T04:56:07.782Z,56.4
2022-08-01T04:58:58.594Z,58.1
2022-08-01T05:02:18.218Z,59.4
2022-08-01T05:05:05.715Z,60
2022-08-01T05:07:54.233Z,60.3
2022-08-01T05:10:41.790Z,62.1
2022-08-01T05:13:29.536Z,62.6
2022-08-01T05:16:17.683Z,60.5
2022-08-01T05:19:05.094Z,55.6
2022-08-01T05:21:53.703Z,55.4
2022-08-01T05:24:50.246Z,57.1
2022-08-01T05:27:38.382Z,58.5
2022-08-01T05:30:26.324Z,59.7
2022-08-01T05:33:14.976Z,60.4
2022-08-01T05:36:02.405Z,61.2
2022-08-01T05:38:50.639Z,61.7
2022-08-01T05:41:38.092Z,62.7
2022-08-01T05:44:26.102Z,61.3
2022-08-01T05:47:14.085Z,56.1
2022-08-01T05:50:01.539Z,56.4
2022-08-01T05:52:50.600Z,58.3
2022-08-01T05:55:38.109Z,58.8
2022-08-01T05:58:25.870Z,60.3
2022-08-01T06:01:13.847Z,61.4
2022-08-01T06:04:01.485Z,61.3
2022-08-01T06:06:49.312Z,62.8
2022-08-01T06:09:36.971Z,60.7
2022-08-01T06:12:24.429Z,55.6
2022-08-01T06:15:12.161Z,56.1
2022-08-01T06:17:59.698Z,56.8
2022-08-01T06:20:47.233Z,58.4
2022-08-01T06:23:34.694Z,59.8
2022-08-01T06:26:23.038Z,59.9
2022-08-01T06:29:10.573Z,61
2022-08-01T06:32:00.023Z,62
2022-08-01T06:34:47.885Z,62.3
2022-08-01T06:37:35.492Z,63
2022-08-01T06:40:23.321Z,57.9
2022-08-01T06:43:11.219Z,56.4
2022-08-01T06:45:58.737Z,57.2
2022-08-01T06:48:46.308Z,58.2
2022-08-01T06:51:33.805Z,59.3
2022-08-01T06:54:21.258Z,60.1
2022-08-01T06:57:08.935Z,60.5
2022-08-01T06:59:56.590Z,61.7
2022-08-01T07:02:47.039Z,61.6
2022-08-01T07:05:35.007Z,55.8
2022-08-01T07:08:22.721Z,54.7
2022-08-01T07:11:10.261Z,55.7
2022-08-01T07:13:57.737Z,57.2
2022-08-01T07:16:45.865Z,58.1
2022-08-01T07:19:33.385Z,58.9
2022-08-01T07:22:23.581Z,59.9
2022-08-01T07:25:11.210Z,60.3
2022-08-01T07:27:59.578Z,61.1
2022-08-01T07:30:46.959Z,61.3
2022-08-01T07:33:49.061Z,61.4
2022-08-01T07:36:37.307Z,61.4
2022-08-01T07:39:25.017Z,61.9
2022-08-01T07:42:12.808Z,62.1
2022-08-01T07:45:00.712Z,57
2022-08-01T07:47:48.325Z,56.4
2022-08-01T07:50:35.800Z,57.3
2022-08-01T07:53:23.270Z,57.6
2022-08-01T07:56:10.698Z,58.4
2022-08-01T07:58:58.146Z,59.2
2022-08-01T08:01:45.869Z,60
2022-08-01T08:04:36.366Z,60.3
2022-08-01T08:07:23.914Z,60.8
2022-08-01T08:10:11.472Z,60.9
2022-08-01T08:12:59.397Z,61.2
2022-08-01T08:15:48.282Z,61.6
2022-08-01T08:18:36.396Z,61.4
2022-08-01T08:21:24.322Z,61.4
2022-08-01T08:24:11.994Z,60.9
2022-08-01T08:27:09.219Z,61.1
2022-08-01T08:29:57.235Z,60.6
2022-08-01T08:32:44.641Z,60.6
2022-08-01T08:35:53.475Z,60.1
2022-08-01T08:38:41.687Z,60
2022-08-01T08:41:37.597Z,59.6
2022-08-01T08:44:26.004Z,59.4
2022-08-01T08:47:19.027Z,59.2
2022-08-01T08:50:08.470Z,59.1
2022-08-01T08:52:56.250Z,58.8
2022-08-01T08:55:56.047Z,58.4
2022-08-01T08:58:45.211Z,58.2
2022-08-01T09:01:33.518Z,57.8
2022-08-01T09:04:21.167Z,57.6
2022-08-01T09:07:12.510Z,57.2
2022-08-01T09:10:00.340Z,57.7
2022-08-01T09:12:48.533Z,57.4
2022-08-01T09:15:56.488Z,57
2022-08-01T09:18:44.896Z,56.7
2022-08-01T09:21:32.356Z,55.6
2022-08-01T09:24:30.333Z,54.5
2022-08-01T09:27:19.872Z,53.7
2022-08-01T09:30:11.340Z,53.9
2022-08-01T09:33:01.439Z,51.4
2022-08-01T09:35:50.230Z,52
2022-08-01T09:38:46.158Z,52.6
2022-08-01T09:41:40.467Z,52.5
2022-08-01T09:44:42.014Z,52.1
2022-08-01T09:47:31.490Z,52.9
2022-08-01T09:50:24.165Z,51.2
2022-08-01T09:53:30.726Z,52.8
2022-08-01T09:56:28.758Z,51
2022-08-01T09:59:28.824Z,50.4
2022-08-01T10:02:23.362Z,51.2
2022-08-01T10:05:18.903Z,49.8
2022-08-01T10:08:22.967Z,49.1
2022-08-01T10:11:12.366Z,50.1
2022-08-01T10:14:00.174Z,50.8
2022-08-01T10:17:03.182Z,49.9
2022-08-01T10:19:58.250Z,48.8
2022-08-01T10:22:49.699Z,47.9
2022-08-01T10:25:42.077Z,46.9
2022-08-01T10:28:31.799Z,46.9
2022-08-01T10:31:30.917Z,46.8
2022-08-01T10:34:19.143Z,45.7
2022-08-01T10:37:13.634Z,45.9
2022-08-01T10:40:28.908Z,44.8
2022-08-01T10:43:21.439Z,44.4
2022-08-01T10:46:09.645Z,45.1
2022-08-01T10:48:58.327Z,46.1
2022-08-01T10:51:54.759Z,46.7
2022-08-01T10:54:52.405Z,47.3
2022-08-01T10:57:53.056Z,47.8
2022-08-01T11:00:40.753Z,49.4
2022-08-01T11:03:54.497Z,52.7
2022-08-01T11:06:50.465Z,57
2022-08-01T11:09:52.007Z,64.2
2022-08-01T11:12:50.965Z,59.8
2022-08-01T11:15:50.248Z,55.9
2022-08-01T11:19:12.302Z,59.4
2022-08-01T11:22:01.479Z,61.9
2022-08-01T11:24:50.901Z,60.2
2022-08-01T11:27:43.485Z,57.1
2022-08-01T11:30:31.655Z,63.2
2022-08-01T11:33:19.254Z,60.6
2022-08-01T11:36:58.314Z,57.4
2022-08-01T11:40:10.339Z,60.9
2022-08-01T11:43:02.686Z,61.3
2022-08-01T11:46:04.929Z,56
2022-08-01T11:48:54.281Z,58.1
2022-08-01T11:52:10.496Z,58.3
2022-08-01T11:55:00.689Z,59
2022-08-01T11:57:54.769Z,59.2
2022-08-01T12:00:47.259Z,59.9
2022-08-01T12:03:40.184Z,62.4
2022-08-01T12:06:41.915Z,56.9
2022-08-01T12:09:30.361Z,55.9
2022-08-01T12:12:18.779Z,51.6
2022-08-01T12:15:06.548Z,55.1
2022-08-01T12:17:59.676Z,55.7
2022-08-01T12:20:56.504Z,56.6
2022-08-01T12:23:50.430Z,55.6
2022-08-01T12:26:47.285Z,55.6
2022-08-01T12:29:34.931Z,55.1
2022-08-01T12:32:27.911Z,56.7
2022-08-01T12:35:24.440Z,59.4
2022-08-01T12:38:13.558Z,58.7
2022-08-01T12:41:03.450Z,59.9
2022-08-01T12:43:56.122Z,60.6
2022-08-01T12:46:44.580Z,61.6
2022-08-01T12:49:32.402Z,62.5
2022-08-01T12:52:22.029Z,59.8
2022-08-01T12:55:17.616Z,56
2022-08-01T12:58:06.766Z,54.2
2022-08-01T13:00:56.762Z,58.9
2022-08-01T13:03:50.797Z,57.8
2022-08-01T13:06:49.573Z,59
2022-08-01T13:09:39.731Z,55.5
2022-08-01T13:12:35.886Z,58.1
2022-08-01T13:15:24.518Z,62
2022-08-01T13:18:17.606Z,62.8
2022-08-01T13:21:15.710Z,65.9
2022-08-01T13:24:05.273Z,61.3
2022-08-01T13:26:56.502Z,59.3
2022-08-01T13:29:46.213Z,60.1
2022-08-01T13:32:35.507Z,58.2
2022-08-01T13:35:24.225Z,54.6
2022-08-01T13:38:12.157Z,54.6
2022-08-01T13:40:59.734Z,55
2022-08-01T13:43:58.391Z,56.3
2022-08-01T13:46:49.659Z,56.6
2022-08-01T13:49:40.801Z,53.6
2022-08-01T13:52:29.273Z,55.3
2022-08-01T13:55:17.751Z,56.6
2022-08-01T13:58:06.399Z,57
2022-08-01T14:00:53.949Z,58.1
2022-08-01T14:03:41.969Z,58.4
2022-08-01T14:06:29.705Z,59
2022-08-01T14:09:24.483Z,58.9
2022-08-01T14:12:12.253Z,59.5
2022-08-01T14:14:59.786Z,59.2
2022-08-01T14:17:48.174Z,60.1
2022-08-01T14:20:36.351Z,60.1
2022-08-01T14:23:24.944Z,60.3
2022-08-01T14:26:12.730Z,60.5
2022-08-01T14:29:00.445Z,61.2
2022-08-01T14:31:48.079Z,61
2022-08-01T14:34:35.738Z,61
2022-08-01T14:37:23.247Z,60.8
2022-08-01T14:40:19.819Z,59.7
2022-08-01T14:43:07.359Z,60.2
2022-08-01T14:46:11.871Z,59.5
2022-08-01T14:49:00.210Z,59.2
2022-08-01T14:51:47.794Z,59.9
2022-08-01T14:54:35.342Z,59.6
2022-08-01T14:57:22.918Z,57.8
2022-08-01T15:00:10.490Z,56.6
2022-08-01T15:02:58.746Z,56.9
2022-08-01T15:05:46.163Z,57.6
2022-08-01T15:08:33.765Z,57.6
2022-08-01T15:11:21.691Z,56.4
2022-08-01T15:14:09.166Z,54.8
2022-08-01T15:17:29.007Z,53
2022-08-01T15:20:18.651Z,51.6
2022-08-01T15:23:06.190Z,50.7
2022-08-01T15:25:53.689Z,48.4
2022-08-01T15:28:41.383Z,49.9
2022-08-01T15:31:29.449Z,50.2
2022-08-01T15:34:18.063Z,50.3
2022-08-01T15:37:05.599Z,50.2
2022-08-01T15:39:56.568Z,50.9
2022-08-01T15:42:44.642Z,51.9
2022-08-01T15:45:47.710Z,52.8
2022-08-01T15:48:39.979Z,53.2
2022-08-01T15:51:28.009Z,54.5
2022-08-01T15:54:16.983Z,54.7
2022-08-01T15:57:05.040Z,53.6
2022-08-01T15:59:53.385Z,54
2022-08-01T16:02:40.930Z,54.5
2022-08-01T16:05:29.053Z,53.7
2022-08-01T16:08:17.466Z,53.3
2022-08-01T16:11:05.018Z,53.1
2022-08-01T16:13:52.632Z,50.3
2022-08-01T16:16:40.771Z,49.7
2022-08-01T16:19:28.598Z,49.9
2022-08-01T16:22:17.274Z,51
2022-08-01T16:25:05.395Z,50.6
2022-08-01T16:27:54.132Z,50.9
2022-08-01T16:30:48.808Z,51.4
2022-08-01T16:34:02.637Z,52.3
2022-08-01T16:36:52.493Z,52.4
2022-08-01T16:39:40.347Z,52.6
2022-08-01T16:42:30.471Z,52.8
2022-08-01T16:45:18.462Z,53.7
2022-08-01T16:48:06.962Z,54.3
2022-08-01T16:51:03.014Z,54.3
2022-08-01T16:53:50.682Z,54.7
2022-08-01T16:56:38.517Z,54.5
2022-08-01T16:59:26.003Z,54.6
2022-08-01T17:02:13.731Z,54.6
2022-08-01T17:05:07.296Z,55.5
2022-08-01T17:07:57.486Z,55.2
2022-08-01T17:10:44.988Z,55.3
2022-08-01T17:13:33.313Z,55.2
2022-08-01T17:16:20.993Z,55.7
2022-08-01T17:19:09.227Z,55.8
2022-08-01T17:21:56.730Z,55.7
2022-08-01T17:24:44.507Z,56.7
2022-08-01T17:27:32.015Z,56.2
2022-08-01T17:30:19.570Z,56.1
2022-08-01T17:33:07.476Z,56.3
2022-08-01T17:35:55.160Z,56.4
2022-08-01T17:38:42.742Z,56.5
2022-08-01T17:41:30.434Z,56.8
2022-08-01T17:44:18.727Z,57.4
2022-08-01T17:47:06.530Z,57.3
2022-08-01T17:49:55.412Z,56.9
2022-08-01T17:52:46.922Z,57.1
2022-08-01T17:55:55.374Z,57.1
2022-08-01T17:58:51.346Z,57.4
2022-08-01T18:01:45.371Z,57.6
2022-08-01T18:04:33.770Z,57.5
2022-08-01T18:07:21.961Z,57.8
2022-08-01T18:10:48.660Z,57.6
2022-08-01T18:13:36.225Z,57.6
2022-08-01T18:16:23.748Z,58.1
2022-08-01T18:19:11.326Z,58.1
2022-08-01T18:21:58.867Z,58.4
2022-08-01T18:24:46.377Z,58.4
2022-08-01T18:28:25.608Z,58.1
2022-08-01T18:31:23.570Z,58.2
2022-08-01T18:34:11.116Z,58.4
2022-08-01T18:36:59.218Z,58.8
2022-08-01T18:39:47.846Z,59.4
2022-08-01T18:42:35.546Z,60.3
2022-08-01T18:45:23.030Z,59.8
2022-08-01T18:48:16.535Z,60.1
2022-08-01T18:51:11.657Z,60.6
2022-08-01T18:54:01.993Z,60.8
2022-08-01T18:56:56.940Z,61.8
2022-08-01T18:59:44.931Z,61.2
2022-08-01T19:02:32.381Z,55.9
2022-08-01T19:05:19.786Z,55.1
2022-08-01T19:08:08.193Z,55.9
2022-08-01T19:10:56.231Z,57
2022-08-01T19:13:44.735Z,57.7
2022-08-01T19:16:32.229Z,58.4
2022-08-01T19:19:27.733Z,60
2022-08-01T19:22:16.822Z,60.1
2022-08-01T19:25:04.262Z,60.8
2022-08-01T19:27:52.573Z,62.7
2022-08-01T19:30:42.728Z,57.9
2022-08-01T19:33:30.910Z,55.6
2022-08-01T19:36:24.243Z,57.1
2022-08-01T19:39:13.047Z,58
2022-08-01T19:42:06.187Z,59.3
2022-08-01T19:44:54.321Z,60.6
2022-08-01T19:47:52.022Z,61
2022-08-01T19:50:44.721Z,61.9
2022-08-01T19:53:33.997Z,62.1
2022-08-01T19:56:23.649Z,62
2022-08-01T19:59:14.741Z,57
2022-08-01T20:02:03.464Z,55.8
2022-08-01T20:04:52.363Z,57.3
2022-08-01T20:07:39.847Z,58.2
2022-08-01T20:10:30.078Z,60.4
2022-08-01T20:13:20.274Z,60.7
2022-08-01T20:16:08.811Z,61.3
2022-08-01T20:18:56.854Z,62.4
2022-08-01T20:21:44.709Z,62.3
2022-08-01T20:24:52.491Z,56.1
2022-08-01T20:27:43.991Z,55.8
2022-08-01T20:30:32.504Z,57.2
2022-08-01T20:33:20.129Z,58.7
2022-08-01T20:36:12.397Z,59.6
2022-08-01T20:39:15.185Z,61.1
2022-08-01T20:42:04.075Z,62
2022-08-01T20:44:52.097Z,61.6
2022-08-01T20:47:41.325Z,56.6
2022-08-01T20:50:52.538Z,56.7
2022-08-01T20:54:15.298Z,58.5
2022-08-01T20:57:02.766Z,60
2022-08-01T20:59:57.407Z,60.5
2022-08-01T21:02:50.426Z,61.9
2022-08-01T21:05:55.454Z,62.6
2022-08-01T21:08:58.662Z,61.7
2022-08-01T21:11:49.744Z,56.3
2022-08-01T21:14:43.208Z,56.7
2022-08-01T21:17:36.545Z,58.4
2022-08-01T21:20:31.002Z,59.5
2022-08-01T21:23:21.262Z,60.7
2022-08-01T21:26:17.140Z,61.5
2022-08-01T21:29:05.699Z,63.7
2022-08-01T21:31:55.503Z,59.2
2022-08-01T21:35:00.049Z,57.1
2022-08-01T21:37:52.204Z,59
2022-08-01T21:40:43.984Z,60.5
2022-08-01T21:43:31.894Z,61.2
2022-08-01T21:46:21.442Z,62
2022-08-01T21:49:12.693Z,62.9
2022-08-01T21:52:00.233Z,57.9
2022-08-01T21:54:52.432Z,56.2
2022-08-01T21:57:46.649Z,57.7
2022-08-01T22:00:55.493Z,60
2022-08-01T22:03:50.516Z,61
2022-08-01T22:06:40.984Z,62.7
2022-08-01T22:09:33.637Z,62.2
2022-08-01T22:12:23.913Z,56.9
2022-08-01T22:15:11.926Z,56.8
2022-08-01T22:17:59.686Z,59.2
2022-08-01T22:40:59.602Z,58.3
2022-08-01T22:43:49.325Z,57.9
2022-08-01T22:46:45.496Z,59.3
2022-08-01T22:49:41.095Z,61.2
2022-08-01T22:52:35.330Z,62.4
2022-08-01T22:55:59.218Z,60.9
2022-08-01T22:58:52.236Z,55.6
2022-08-01T23:01:42.551Z,56.4
2022-08-01T23:04:36.762Z,57.9
2022-08-01T23:07:30.022Z,59.7
2022-08-01T23:10:20.033Z,61.1
2022-08-01T23:13:10.207Z,62.6
2022-08-01T23:15:59.748Z,61
2022-08-01T23:18:48.967Z,55.8
2022-08-01T23:21:41.885Z,56.6
2022-08-01T23:24:31.824Z,58.1
2022-08-01T23:27:20.747Z,59.6
2022-08-01T23:30:10.599Z,61.8
2022-08-01T23:32:59.385Z,62.6
2022-08-01T23:35:47.735Z,61.4
2022-08-01T23:38:35.521Z,57
2022-08-01T23:41:23.164Z,57.5
2022-08-01T23:44:10.685Z,57.8
2022-08-01T23:46:58.076Z,59.5
2022-08-01T23:49:52.072Z,60.5
2022-08-01T23:52:48.575Z,61.5
2022-08-01T23:55:39.008Z,62.6
2022-08-01T23:58:26.531Z,60.3
